sensor_id;sensor_type;location;lat;lon;timestamp;pressure;altitude;pressure_sealevel;temperature;humidity
11038;BME280;5572;49.540;11.932;2023-04-08T02:54:39;97121.41;;;4.34;100.00
11038;BME280;5572;49.540;11.932;2023-04-08T02:57:06;97122.59;;;4.26;100.00
11038;BME280;5572;49.540;11.932;2023-04-08T02:59:33;97126.06;;;4.27;100.00
11038;BME280;5572;49.540;11.932;2023-04-08T03:02:01;97125.81;;;4.40;100.00
11038;BME280;5572;49.540;11.932;2023-04-08T03:04:28;97122.88;;;4.41;100.00
11038;BME280;5572;49.540;11.932;2023-04-08T03:06:54;97124.53;;;4.31;100.00
11038;BME280;5572;49.540;11.932;2023-04-08T03:09:21;97125.00;;;4.28;100.00
11038;BME280;5572;49.540;11.932;2023-04-08T03:11:49;97130.78;;;4.48;100.00
11038;BME280;5572;49.540;11.932;2023-04-08T03:14:19;97138.00;;;4.47;100.00
11038;BME280;5572;49.540;11.932;2023-04-08T03:16:46;97130.19;;;4.57;100.00
11038;BME280;5572;49.540;11.932;2023-04-08T03:19:12;97133.06;;;4.67;100.00
11038;BME280;5572;49.540;11.932;2023-04-08T03:21:39;97126.47;;;4.58;100.00
11038;BME280;5572;49.540;11.932;2023-04-08T03:24:05;97121.72;;;4.77;100.00
11038;BME280;5572;49.540;11.932;2023-04-08T03:26:32;97131.16;;;4.96;100.00
11038;BME280;5572;49.540;11.932;2023-04-08T03:29:00;97128.50;;;4.96;100.00
11038;BME280;5572;49.540;11.932;2023-04-08T03:31:26;97122.66;;;4.99;100.00
11038;BME280;5572;49.540;11.932;2023-04-08T03:33:53;97119.72;;;5.00;100.00
11038;BME280;5572;49.540;11.932;2023-04-08T03:36:19;97120.13;;;4.92;100.00
11038;BME280;5572;49.540;11.932;2023-04-08T03:38:46;97115.03;;;4.91;100.00
11038;BME280;5572;49.540;11.932;2023-04-08T03:41:12;97113.41;;;4.90;100.00
11038;BME280;5572;49.540;11.932;2023-04-08T03:43:39;97106.72;;;4.92;100.00
11038;BME280;5572;49.540;11.932;2023-04-08T03:46:07;97108.38;;;4.93;100.00
11038;BME280;5572;49.540;11.932;2023-04-08T03:48:34;97103.13;;;4.98;100.00
11038;BME280;5572;49.540;11.932;2023-04-08T03:51:00;97104.78;;;4.88;100.00
11038;BME280;5572;49.540;11.932;2023-04-08T03:56:03;97095.13;;;4.87;100.00
11038;BME280;5572;49.540;11.932;2023-04-08T03:58:31;97083.34;;;4.88;100.00
11038;BME280;5572;49.540;11.932;2023-04-08T04:00:59;97087.59;;;4.84;100.00
11038;BME280;5572;49.540;11.932;2023-04-08T04:03:28;97098.66;;;4.76;100.00
11038;BME280;5572;49.540;11.932;2023-04-08T04:05:56;97101.72;;;4.68;100.00
11038;BME280;5572;49.540;11.932;2023-04-08T04:08:23;97125.81;;;4.68;100.00
11038;BME280;5572;49.540;11.932;2023-04-08T04:10:51;97126.88;;;4.67;100.00
11038;BME280;5572;49.540;11.932;2023-04-08T04:13:17;97144.28;;;4.53;100.00
11038;BME280;5572;49.540;11.932;2023-04-08T04:15:46;97155.44;;;4.50;100.00
11038;BME280;5572;49.540;11.932;2023-04-08T04:18:13;97154.78;;;4.43;100.00
11038;BME280;5572;49.540;11.932;2023-04-08T04:20:42;97165.13;;;4.28;100.00
11038;BME280;5572;49.540;11.932;2023-04-08T04:23:09;97162.16;;;4.13;100.00
11038;BME280;5572;49.540;11.932;2023-04-08T04:25:40;97158.09;;;3.99;100.00
11038;BME280;5572;49.540;11.932;2023-04-08T04:28:07;97159.59;;;3.95;100.00
11038;BME280;5572;49.540;11.932;2023-04-08T04:30:36;97168.69;;;3.94;100.00
11038;BME280;5572;49.540;11.932;2023-04-08T04:33:04;97175.97;;;3.87;100.00
11038;BME280;5572;49.540;11.932;2023-04-08T04:35:32;97165.63;;;3.91;100.00
11038;BME280;5572;49.540;11.932;2023-04-08T04:38:01;97181.56;;;3.86;100.00
11038;BME280;5572;49.540;11.932;2023-04-08T04:40:33;97173.09;;;3.89;100.00
11038;BME280;5572;49.540;11.932;2023-04-08T04:43:00;97182.13;;;3.76;100.00
11038;BME280;5572;49.540;11.932;2023-04-08T04:45:28;97180.63;;;3.80;100.00
11038;BME280;5572;49.540;11.932;2023-04-08T04:47:56;97184.47;;;3.61;100.00
11038;BME280;5572;49.540;11.932;2023-04-08T04:50:22;97178.78;;;3.69;100.00
11038;BME280;5572;49.540;11.932;2023-04-08T04:52:49;97171.69;;;3.75;100.00
11038;BME280;5572;49.540;11.932;2023-04-08T04:55:17;97176.44;;;3.73;100.00
11038;BME280;5572;49.540;11.932;2023-04-08T04:57:44;97168.38;;;3.50;100.00
11038;BME280;5572;49.540;11.932;2023-04-08T05:00:12;97157.94;;;3.48;100.00
11038;BME280;5572;49.540;11.932;2023-04-08T05:02:39;97136.81;;;3.58;100.00
11038;BME280;5572;49.540;11.932;2023-04-08T05:05:06;97137.97;;;3.51;100.00
11038;BME280;5572;49.540;11.932;2023-04-08T05:07:34;97133.91;;;3.71;100.00
11038;BME280;5572;49.540;11.932;2023-04-08T05:10:02;97136.47;;;3.55;100.00
11038;BME280;5572;49.540;11.932;2023-04-08T05:12:31;97116.72;;;3.79;100.00
11038;BME280;5572;49.540;11.932;2023-04-08T05:14:58;97117.75;;;3.66;100.00
11038;BME280;5572;49.540;11.932;2023-04-08T05:17:25;97119.84;;;3.53;100.00
11038;BME280;5572;49.540;11.932;2023-04-08T05:19:52;97105.81;;;3.69;100.00
11038;BME280;5572;49.540;11.932;2023-04-08T05:22:19;97098.13;;;3.72;100.00
11038;BME280;5572;49.540;11.932;2023-04-08T05:24:46;97099.88;;;3.67;100.00
11038;BME280;5572;49.540;11.932;2023-04-08T05:27:14;97085.41;;;3.91;100.00
11038;BME280;5572;49.540;11.932;2023-04-08T05:29:42;97079.06;;;3.80;100.00
11038;BME280;5572;49.540;11.932;2023-04-08T05:32:10;97071.84;;;3.81;100.00
11038;BME280;5572;49.540;11.932;2023-04-08T05:34:37;97066.97;;;3.66;100.00
11038;BME280;5572;49.540;11.932;2023-04-08T05:37:04;97059.88;;;3.72;100.00
11038;BME280;5572;49.540;11.932;2023-04-08T05:39:31;97051.50;;;3.91;100.00
11038;BME280;5572;49.540;11.932;2023-04-08T05:42:00;97031.88;;;4.14;100.00
11038;BME280;5572;49.540;11.932;2023-04-08T05:44:28;97017.03;;;4.06;100.00
11038;BME280;5572;49.540;11.932;2023-04-08T05:46:57;97016.19;;;3.66;100.00
11038;BME280;5572;49.540;11.932;2023-04-08T05:49:24;97007.13;;;3.79;100.00
11038;BME280;5572;49.540;11.932;2023-04-08T05:51:51;97009.91;;;3.72;100.00
11038;BME280;5572;49.540;11.932;2023-04-08T05:54:18;96978.78;;;4.06;100.00
11038;BME280;5572;49.540;11.932;2023-04-08T05:56:44;96989.00;;;3.69;100.00
11038;BME280;5572;49.540;11.932;2023-04-08T05:59:13;96983.81;;;3.51;100.00
11038;BME280;5572;49.540;11.932;2023-04-08T06:01:39;96962.09;;;3.87;100.00
11038;BME280;5572;49.540;11.932;2023-04-08T06:04:07;96954.31;;;3.86;100.00
11038;BME280;5572;49.540;11.932;2023-04-08T06:06:36;96958.69;;;3.64;100.00
11038;BME280;5572;49.540;11.932;2023-04-08T06:09:04;96933.91;;;4.08;100.00
11038;BME280;5572;49.540;11.932;2023-04-08T06:11:31;96917.28;;;4.06;100.00
11038;BME280;5572;49.540;11.932;2023-04-08T06:13:58;96941.53;;;3.88;100.00
11038;BME280;5572;49.540;11.932;2023-04-08T06:16:25;96918.09;;;4.22;100.00
11038;BME280;5572;49.540;11.932;2023-04-08T06:18:52;96900.84;;;4.30;100.00
11038;BME280;5572;49.540;11.932;2023-04-08T06:21:21;96910.66;;;4.24;100.00
11038;BME280;5572;49.540;11.932;2023-04-08T06:23:48;96917.47;;;3.88;100.00
11038;BME280;5572;49.540;11.932;2023-04-08T06:26:15;96887.63;;;4.23;100.00
11038;BME280;5572;49.540;11.932;2023-04-08T06:28:42;96853.84;;;4.34;100.00
11038;BME280;5572;49.540;11.932;2023-04-08T06:31:10;96845.88;;;4.22;100.00
11038;BME280;5572;49.540;11.932;2023-04-08T06:33:37;96833.16;;;4.29;100.00
11038;BME280;5572;49.540;11.932;2023-04-08T06:36:06;96832.75;;;4.21;100.00
11038;BME280;5572;49.540;11.932;2023-04-08T06:38:35;96824.47;;;4.06;100.00
11038;BME280;5572;49.540;11.932;2023-04-08T06:41:04;96814.97;;;4.15;100.00
11038;BME280;5572;49.540;11.932;2023-04-08T06:43:35;96794.41;;;4.48;100.00
11038;BME280;5572;49.540;11.932;2023-04-08T06:52:47;96790.84;;;4.26;100.00
11038;BME280;5572;49.540;11.932;2023-04-08T06:55:15;96785.00;;;4.29;100.00
11038;BME280;5572;49.540;11.932;2023-04-08T06:57:42;96772.13;;;4.64;100.00
11038;BME280;5572;49.540;11.932;2023-04-08T07:00:11;96783.09;;;4.63;100.00
11038;BME280;5572;49.540;11.932;2023-04-08T07:02:38;96779.75;;;4.56;100.00
11038;BME280;5572;49.540;11.932;2023-04-08T07:05:05;96747.69;;;4.99;100.00
11038;BME280;5572;49.540;11.932;2023-04-08T07:07:32;96751.50;;;5.03;100.00
11038;BME280;5572;49.540;11.932;2023-04-08T07:09:58;96763.84;;;5.04;100.00
11038;BME280;5572;49.540;11.932;2023-04-08T07:12:26;96749.75;;;5.39;100.00
11038;BME280;5572;49.540;11.932;2023-04-08T07:14:53;96761.88;;;5.20;100.00
11038;BME280;5572;49.540;11.932;2023-04-08T07:17:19;96766.84;;;5.12;100.00
11038;BME280;5572;49.540;11.932;2023-04-08T07:19:46;96769.31;;;5.13;100.00
11038;BME280;5572;49.540;11.932;2023-04-08T07:22:13;96768.78;;;5.16;100.00
11038;BME280;5572;49.540;11.932;2023-04-08T07:24:40;96774.41;;;4.94;100.00
11038;BME280;5572;49.540;11.932;2023-04-08T07:27:07;96773.16;;;5.01;100.00
11038;BME280;5572;49.540;11.932;2023-04-08T07:29:36;96770.28;;;5.07;100.00
11038;BME280;5572;49.540;11.932;2023-04-08T07:32:04;96754.72;;;5.26;100.00
11038;BME280;5572;49.540;11.932;2023-04-08T07:34:33;96757.44;;;5.31;100.00
11038;BME280;5572;49.540;11.932;2023-04-08T07:37:00;96764.09;;;5.28;100.00
11038;BME280;5572;49.540;11.932;2023-04-08T07:39:27;96764.28;;;5.43;100.00
11038;BME280;5572;49.540;11.932;2023-04-08T07:41:53;96761.75;;;5.58;100.00
11038;BME280;5572;49.540;11.932;2023-04-08T07:44:20;96763.31;;;5.54;100.00
11038;BME280;5572;49.540;11.932;2023-04-08T07:46:48;96757.56;;;5.67;100.00
11038;BME280;5572;49.540;11.932;2023-04-08T07:49:15;96764.81;;;5.45;100.00
11038;BME280;5572;49.540;11.932;2023-04-08T07:51:42;96751.97;;;5.74;100.00
11038;BME280;5572;49.540;11.932;2023-04-08T07:54:08;96764.41;;;5.32;100.00
11038;BME280;5572;49.540;11.932;2023-04-08T07:56:36;96754.09;;;5.45;100.00
11038;BME280;5572;49.540;11.932;2023-04-08T07:59:04;96744.84;;;5.31;100.00
11038;BME280;5572;49.540;11.932;2023-04-08T08:01:31;96753.59;;;5.48;100.00
11038;BME280;5572;49.540;11.932;2023-04-08T08:04:00;96761.28;;;5.66;100.00
11038;BME280;5572;49.540;11.932;2023-04-08T08:06:27;96768.81;;;5.43;100.00
11038;BME280;5572;49.540;11.932;2023-04-08T08:08:55;96776.44;;;5.29;100.00
11038;BME280;5572;49.540;11.932;2023-04-08T08:11:22;96771.13;;;5.34;100.00
11038;BME280;5572;49.540;11.932;2023-04-08T08:13:51;96776.06;;;5.21;100.00
11038;BME280;5572;49.540;11.932;2023-04-08T08:16:17;96763.66;;;5.36;100.00
11038;BME280;5572;49.540;11.932;2023-04-08T08:18:45;96778.81;;;5.26;100.00
11038;BME280;5572;49.540;11.932;2023-04-08T08:21:14;96772.44;;;5.53;100.00
11038;BME280;5572;49.540;11.932;2023-04-08T08:23:41;96761.91;;;5.73;100.00
11038;BME280;5572;49.540;11.932;2023-04-08T08:26:09;96767.50;;;5.72;100.00
11038;BME280;5572;49.540;11.932;2023-04-08T08:28:35;96762.28;;;6.13;100.00
11038;BME280;5572;49.540;11.932;2023-04-08T08:31:02;96753.16;;;6.14;100.00
11038;BME280;5572;49.540;11.932;2023-04-08T08:33:30;96747.97;;;6.39;100.00
11038;BME280;5572;49.540;11.932;2023-04-08T08:35:56;96763.47;;;5.96;100.00
11038;BME280;5572;49.540;11.932;2023-04-08T08:38:24;96752.81;;;6.37;100.00
11038;BME280;5572;49.540;11.932;2023-04-08T08:40:53;96768.81;;;6.27;100.00
11038;BME280;5572;49.540;11.932;2023-04-08T08:43:21;96767.41;;;6.19;100.00
11038;BME280;5572;49.540;11.932;2023-04-08T08:45:47;96774.03;;;6.07;100.00
11038;BME280;5572;49.540;11.932;2023-04-08T08:48:14;96767.63;;;6.44;100.00
11038;BME280;5572;49.540;11.932;2023-04-08T08:50:41;96774.13;;;6.17;100.00
11038;BME280;5572;49.540;11.932;2023-04-08T08:53:08;96789.50;;;6.26;100.00
11038;BME280;5572;49.540;11.932;2023-04-08T10:27:38;96727.34;;;8.06;100.00
11038;BME280;5572;49.540;11.932;2023-04-08T10:35:29;96734.59;;;8.06;100.00
11038;BME280;5572;49.540;11.932;2023-04-08T10:37:58;96727.91;;;8.23;100.00
11038;BME280;5572;49.540;11.932;2023-04-08T10:40:28;96730.84;;;8.27;100.00
11038;BME280;5572;49.540;11.932;2023-04-08T10:48:20;96744.03;;;8.13;100.00
11038;BME280;5572;49.540;11.932;2023-04-08T10:50:53;96764.66;;;7.53;100.00
11038;BME280;5572;49.540;11.932;2023-04-08T10:55:51;96729.78;;;8.28;100.00
11038;BME280;5572;49.540;11.932;2023-04-08T10:58:20;96746.22;;;8.16;100.00
11038;BME280;5572;49.540;11.932;2023-04-08T11:00:48;96749.66;;;8.07;100.00
11038;BME280;5572;49.540;11.932;2023-04-08T11:03:18;96772.25;;;7.86;100.00
11038;BME280;5572;49.540;11.932;2023-04-08T11:05:48;96778.19;;;7.83;100.00
11038;BME280;5572;49.540;11.932;2023-04-08T11:08:17;96762.09;;;8.28;100.00
11038;BME280;5572;49.540;11.932;2023-04-08T11:10:46;96798.63;;;7.89;100.00
11038;BME280;5572;49.540;11.932;2023-04-08T11:13:15;96823.97;;;7.93;100.00
11038;BME280;5572;49.540;11.932;2023-04-08T11:15:44;96824.25;;;8.06;100.00
11038;BME280;5572;49.540;11.932;2023-04-08T11:18:12;96843.06;;;7.96;100.00
11038;BME280;5572;49.540;11.932;2023-04-08T11:20:43;96835.81;;;8.02;100.00
11038;BME280;5572;49.540;11.932;2023-04-08T11:23:12;96853.00;;;7.91;100.00
11038;BME280;5572;49.540;11.932;2023-04-08T11:25:41;96853.31;;;8.04;100.00
11038;BME280;5572;49.540;11.932;2023-04-08T11:28:10;96843.16;;;8.26;100.00
11038;BME280;5572;49.540;11.932;2023-04-08T11:30:38;96855.47;;;8.12;100.00
11038;BME280;5572;49.540;11.932;2023-04-08T11:33:07;96833.44;;;8.40;100.00
11038;BME280;5572;49.540;11.932;2023-04-08T11:35:39;96857.94;;;8.34;100.00
11038;BME280;5572;49.540;11.932;2023-04-08T11:38:10;96842.09;;;8.52;100.00
11038;BME280;5572;49.540;11.932;2023-04-08T11:41:02;96860.38;;;8.30;100.00
11038;BME280;5572;49.540;11.932;2023-04-08T11:52:43;96854.13;;;8.10;100.00
11038;BME280;5572;49.540;11.932;2023-04-08T11:55:20;96836.69;;;8.62;100.00
11038;BME280;5572;49.540;11.932;2023-04-08T11:57:47;96837.22;;;8.69;100.00
11038;BME280;5572;49.540;11.932;2023-04-08T12:00:13;96803.72;;;9.10;100.00
11038;BME280;5572;49.540;11.932;2023-04-08T12:02:40;96779.00;;;8.88;100.00
11038;BME280;5572;49.540;11.932;2023-04-08T12:05:08;96753.91;;;8.97;100.00
11038;BME280;5572;49.540;11.932;2023-04-08T12:07:36;96726.34;;;9.10;100.00
11038;BME280;5572;49.540;11.932;2023-04-08T12:10:05;96724.03;;;8.79;100.00
11038;BME280;5572;49.540;11.932;2023-04-08T12:12:34;96724.34;;;8.72;100.00
11038;BME280;5572;49.540;11.932;2023-04-08T12:15:02;96710.28;;;8.75;100.00
11038;BME280;5572;49.540;11.932;2023-04-08T12:17:30;96719.81;;;8.38;100.00
11038;BME280;5572;49.540;11.932;2023-04-08T12:19:58;96733.78;;;8.05;100.00
11038;BME280;5572;49.540;11.932;2023-04-08T13:13:41;96829.69;;;9.64;100.00
11038;BME280;5572;49.540;11.932;2023-04-08T13:16:11;96830.84;;;9.48;100.00
11038;BME280;5572;49.540;11.932;2023-04-08T13:18:41;96850.03;;;9.41;100.00
11038;BME280;5572;49.540;11.932;2023-04-08T13:21:13;96854.09;;;9.34;100.00
11038;BME280;5572;49.540;11.932;2023-04-08T13:26:18;96839.66;;;9.73;100.00
11038;BME280;5572;49.540;11.932;2023-04-08T13:28:48;96885.72;;;9.04;100.00
11038;BME280;5572;49.540;11.932;2023-04-08T13:31:17;96880.56;;;9.27;100.00
11038;BME280;5572;49.540;11.932;2023-04-08T13:41:38;96888.69;;;8.97;100.00
11038;BME280;5572;49.540;11.932;2023-04-08T14:35:51;96993.28;;;8.80;100.00
11038;BME280;5572;49.540;11.932;2023-04-08T14:38:18;97030.06;;;8.35;100.00
11038;BME280;5572;49.540;11.932;2023-04-08T14:40:45;97025.00;;;8.53;100.00
11038;BME280;5572;49.540;11.932;2023-04-08T14:43:12;97023.69;;;8.71;100.00
11038;BME280;5572;49.540;11.932;2023-04-08T14:45:39;97026.91;;;8.58;100.00
11038;BME280;5572;49.540;11.932;2023-04-08T14:48:06;97035.44;;;8.40;100.00
11038;BME280;5572;49.540;11.932;2023-04-08T14:50:33;97047.28;;;8.34;100.00
11038;BME280;5572;49.540;11.932;2023-04-08T14:53:02;97058.81;;;8.25;100.00
11038;BME280;5572;49.540;11.932;2023-04-08T14:55:29;97058.81;;;8.25;100.00
11038;BME280;5572;49.540;11.932;2023-04-08T14:57:56;97066.06;;;8.19;100.00
11038;BME280;5572;49.540;11.932;2023-04-08T15:00:26;97070.56;;;8.09;100.00
11038;BME280;5572;49.540;11.932;2023-04-08T15:02:53;97076.50;;;8.11;100.00
11038;BME280;5572;49.540;11.932;2023-04-08T15:05:19;97072.81;;;8.22;100.00
11038;BME280;5572;49.540;11.932;2023-04-08T15:07:46;97069.88;;;8.23;100.00
11038;BME280;5572;49.540;11.932;2023-04-08T15:10:14;97071.94;;;8.62;100.00
11038;BME280;5572;49.540;11.932;2023-04-08T15:12:41;97081.56;;;8.49;100.00
11038;BME280;5572;49.540;11.932;2023-04-08T15:15:08;97072.50;;;8.84;100.00
11038;BME280;5572;49.540;11.932;2023-04-08T15:17:35;97070.88;;;8.78;100.00
11038;BME280;5572;49.540;11.932;2023-04-08T15:20:02;97071.22;;;8.97;100.00
11038;BME280;5572;49.540;11.932;2023-04-08T15:22:28;97057.75;;;9.17;100.00
11038;BME280;5572;49.540;11.932;2023-04-08T15:24:55;97072.50;;;8.84;100.00
11038;BME280;5572;49.540;11.932;2023-04-08T15:27:23;97078.97;;;8.83;100.00
11038;BME280;5572;49.540;11.932;2023-04-08T15:29:50;97087.34;;;8.82;100.00
11038;BME280;5572;49.540;11.932;2023-04-08T15:32:16;97081.72;;;8.93;100.00
11038;BME280;5572;49.540;11.932;2023-04-08T15:34:43;97108.78;;;8.52;100.00
11038;BME280;5572;49.540;11.932;2023-04-08T15:37:10;97099.75;;;8.78;100.00
11038;BME280;5572;49.540;11.932;2023-04-08T15:39:36;97114.44;;;8.55;100.00
11038;BME280;5572;49.540;11.932;2023-04-08T15:42:05;97127.63;;;8.52;100.00
11038;BME280;5572;49.540;11.932;2023-04-08T15:44:33;97132.97;;;8.37;100.00
11038;BME280;5572;49.540;11.932;2023-04-08T15:47:00;97132.50;;;8.55;100.00
11038;BME280;5572;49.540;11.932;2023-04-08T15:49:27;97125.53;;;8.64;100.00
11038;BME280;5572;49.540;11.932;2023-04-08T15:51:54;97127.38;;;8.53;100.00
11038;BME280;5572;49.540;11.932;2023-04-08T15:54:20;97145.09;;;8.40;100.00
11038;BME280;5572;49.540;11.932;2023-04-08T15:56:47;97155.22;;;8.23;100.00
11038;BME280;5572;49.540;11.932;2023-04-08T15:59:14;97148.19;;;8.17;100.00
11038;BME280;5572;49.540;11.932;2023-04-08T16:01:42;97153.91;;;8.25;100.00
11038;BME280;5572;49.540;11.932;2023-04-08T16:04:09;97142.84;;;8.22;100.00
11038;BME280;5572;49.540;11.932;2023-04-08T16:06:36;97142.97;;;8.05;100.00
11038;BME280;5572;49.540;11.932;2023-04-08T16:09:03;97132.59;;;8.19;100.00
11038;BME280;5572;49.540;11.932;2023-04-08T16:11:32;97139.34;;;7.90;100.00
11038;BME280;5572;49.540;11.932;2023-04-08T16:14:00;97124.59;;;7.97;100.00
11038;BME280;5572;49.540;11.932;2023-04-08T16:16:29;97122.91;;;7.86;100.00
11038;BME280;5572;49.540;11.932;2023-04-08T16:18:57;97127.38;;;8.07;100.00
11038;BME280;5572;49.540;11.932;2023-04-08T16:21:24;97135.25;;;7.82;100.00
11038;BME280;5572;49.540;11.932;2023-04-08T16:23:51;97144.69;;;7.85;100.00
11038;BME280;5572;49.540;11.932;2023-04-08T16:26:18;97162.06;;;7.68;100.00
11038;BME280;5572;49.540;11.932;2023-04-08T16:28:46;97173.13;;;7.76;100.00
11038;BME280;5572;49.540;11.932;2023-04-08T16:31:14;97167.72;;;7.71;100.00
11038;BME280;5572;49.540;11.932;2023-04-08T16:33:41;97151.44;;;7.87;100.00
11038;BME280;5572;49.540;11.932;2023-04-08T16:36:11;97157.19;;;7.69;100.00
11038;BME280;5572;49.540;11.932;2023-04-08T16:38:39;97167.94;;;7.65;100.00
11038;BME280;5572;49.540;11.932;2023-04-08T16:41:06;97145.81;;;7.89;100.00
11038;BME280;5572;49.540;11.932;2023-04-08T16:43:35;97157.56;;;7.78;100.00
11038;BME280;5572;49.540;11.932;2023-04-08T16:46:08;97161.16;;;7.88;100.00
11038;BME280;5572;49.540;11.932;2023-04-08T16:48:36;97157.22;;;8.06;100.00
11038;BME280;5572;49.540;11.932;2023-04-08T16:51:03;97158.28;;;8.00;100.00
11038;BME280;5572;49.540;11.932;2023-04-08T16:53:31;97159.84;;;7.96;100.00
11038;BME280;5572;49.540;11.932;2023-04-08T16:55:58;97157.59;;;7.83;100.00
11038;BME280;5572;49.540;11.932;2023-04-08T16:58:24;97149.81;;;7.86;100.00
11038;BME280;5572;49.540;11.932;2023-04-08T17:00:51;97143.91;;;7.89;100.00
11038;BME280;5572;49.540;11.932;2023-04-08T17:03:17;97155.16;;;7.81;100.00
11038;BME280;5572;49.540;11.932;2023-04-08T17:05:44;97143.97;;;7.94;100.00
11038;BME280;5572;49.540;11.932;2023-04-08T17:08:11;97150.06;;;7.85;100.00
11038;BME280;5572;49.540;11.932;2023-04-08T17:10:39;97145.50;;;7.85;100.00
11038;BME280;5572;49.540;11.932;2023-04-08T17:13:05;97137.72;;;7.89;100.00
11038;BME280;5572;49.540;11.932;2023-04-08T17:15:34;97137.38;;;7.75;100.00
11038;BME280;5572;49.540;11.932;2023-04-08T17:18:00;97141.38;;;7.73;100.00
11038;BME280;5572;49.540;11.932;2023-04-08T17:20:27;97146.03;;;7.82;100.00
11038;BME280;5572;49.540;11.932;2023-04-08T17:22:53;97136.59;;;7.80;100.00
11038;BME280;5572;49.540;11.932;2023-04-08T17:25:20;97147.47;;;7.64;100.00
11038;BME280;5572;49.540;11.932;2023-04-08T17:27:49;97148.19;;;7.54;100.00
11038;BME280;5572;49.540;11.932;2023-04-08T17:30:15;97148.28;;;7.64;100.00
11038;BME280;5572;49.540;11.932;2023-04-08T17:32:42;97161.03;;;7.47;100.00
11038;BME280;5572;49.540;11.932;2023-04-08T17:35:08;97161.31;;;7.46;100.00
11038;BME280;5572;49.540;11.932;2023-04-08T17:37:35;97159.50;;;7.25;100.00
11038;BME280;5572;49.540;11.932;2023-04-08T17:40:02;97155.06;;;7.14;100.00
11038;BME280;5572;49.540;11.932;2023-04-08T17:42:28;97158.56;;;7.14;100.00
11038;BME280;5572;49.540;11.932;2023-04-08T17:44:56;97148.44;;;7.21;100.00
11038;BME280;5572;49.540;11.932;2023-04-08T17:47:23;97134.69;;;7.18;100.00
11038;BME280;5572;49.540;11.932;2023-04-08T17:49:53;97143.09;;;7.26;100.00
11038;BME280;5572;49.540;11.932;2023-04-08T17:52:19;97147.03;;;7.19;100.00
11038;BME280;5572;49.540;11.932;2023-04-08T17:54:46;97159.94;;;7.17;100.00
11038;BME280;5572;49.540;11.932;2023-04-08T17:57:12;97150.19;;;7.11;100.00
11038;BME280;5572;49.540;11.932;2023-04-08T17:59:39;97151.56;;;6.87;100.00
11038;BME280;5572;49.540;11.932;2023-04-08T18:02:07;97154.84;;;6.94;100.00
11038;BME280;5572;49.540;11.932;2023-04-08T18:04:33;97165.34;;;6.95;100.00
11038;BME280;5572;49.540;11.932;2023-04-08T18:07:00;97158.97;;;7.01;100.00
11038;BME280;5572;49.540;11.932;2023-04-08T18:09:28;97156.59;;;7.05;100.00
11038;BME280;5572;49.540;11.932;2023-04-08T18:11:55;97169.75;;;7.06;100.00
11038;BME280;5572;49.540;11.932;2023-04-08T18:14:21;97170.59;;;7.07;100.00
11038;BME280;5572;49.540;11.932;2023-04-08T18:16:48;97173.03;;;7.08;100.00
11038;BME280;5572;49.540;11.932;2023-04-08T18:19:16;97174.91;;;7.08;100.00
11038;BME280;5572;49.540;11.932;2023-04-08T18:21:42;97181.09;;;7.08;100.00
11038;BME280;5572;49.540;11.932;2023-04-08T18:24:09;97190.69;;;7.04;100.00
11038;BME280;5572;49.540;11.932;2023-04-08T18:26:37;97188.56;;;7.06;100.00
11038;BME280;5572;49.540;11.932;2023-04-08T18:29:04;97197.22;;;7.08;100.00
11038;BME280;5572;49.540;11.932;2023-04-08T18:31:32;97192.59;;;7.04;100.00
11038;BME280;5572;49.540;11.932;2023-04-08T18:33:59;97195.31;;;7.09;100.00
11038;BME280;5572;49.540;11.932;2023-04-08T18:36:27;97190.81;;;7.14;100.00
11038;BME280;5572;49.540;11.932;2023-04-08T18:38:54;97194.47;;;7.03;100.00
11038;BME280;5572;49.540;11.932;2023-04-08T18:41:21;97198.22;;;7.02;100.00
11038;BME280;5572;49.540;11.932;2023-04-08T18:43:49;97199.22;;;6.96;100.00
11038;BME280;5572;49.540;11.932;2023-04-08T18:46:16;97197.16;;;6.82;100.00
11038;BME280;5572;49.540;11.932;2023-04-08T18:48:44;97194.66;;;6.76;100.00
11038;BME280;5572;49.540;11.932;2023-04-08T18:51:10;97204.34;;;6.77;100.00
11038;BME280;5572;49.540;11.932;2023-04-08T18:53:39;97213.03;;;6.83;100.00
11038;BME280;5572;49.540;11.932;2023-04-08T18:56:13;97211.72;;;6.86;100.00
11038;BME280;5572;49.540;11.932;2023-04-08T18:58:39;97224.81;;;6.61;100.00
11038;BME280;5572;49.540;11.932;2023-04-08T19:01:06;97236.41;;;6.83;100.00
11038;BME280;5572;49.540;11.932;2023-04-08T19:03:33;97233.88;;;6.55;100.00
11038;BME280;5572;49.540;11.932;2023-04-08T19:06:03;97232.38;;;6.64;100.00
11038;BME280;5572;49.540;11.932;2023-04-08T19:08:30;97234.28;;;6.64;100.00
11038;BME280;5572;49.540;11.932;2023-04-08T19:10:58;97244.59;;;6.72;100.00
11038;BME280;5572;49.540;11.932;2023-04-08T19:13:24;97258.75;;;6.67;100.00
11038;BME280;5572;49.540;11.932;2023-04-08T19:15:51;97247.19;;;6.67;100.00
11038;BME280;5572;49.540;11.932;2023-04-08T19:18:18;97256.25;;;6.61;100.00
11038;BME280;5572;49.540;11.932;2023-04-08T19:20:44;97266.66;;;6.57;100.00
11038;BME280;5572;49.540;11.932;2023-04-08T19:23:11;97270.41;;;6.56;100.00
11038;BME280;5572;49.540;11.932;2023-04-08T19:25:37;97264.53;;;6.59;100.00
11038;BME280;5572;49.540;11.932;2023-04-08T19:28:05;97270.78;;;6.65;100.00
11038;BME280;5572;49.540;11.932;2023-04-08T19:30:34;97271.13;;;6.68;100.00
11038;BME280;5572;49.540;11.932;2023-04-08T19:33:01;97264.88;;;6.63;100.00
11038;BME280;5572;49.540;11.932;2023-04-08T19:35:28;97269.50;;;6.67;100.00
11038;BME280;5572;49.540;11.932;2023-04-08T19:37:55;97264.94;;;6.68;100.00
11038;BME280;5572;49.540;11.932;2023-04-08T19:40:21;97268.19;;;6.70;100.00
11038;BME280;5572;49.540;11.932;2023-04-08T19:42:48;97258.94;;;6.61;100.00
11038;BME280;5572;49.540;11.932;2023-04-08T19:45:16;97266.34;;;6.54;100.00
11038;BME280;5572;49.540;11.932;2023-04-08T19:47:42;97257.63;;;6.47;100.00
11038;BME280;5572;49.540;11.932;2023-04-08T19:50:10;97257.47;;;6.53;100.00
11038;BME280;5572;49.540;11.932;2023-04-08T19:52:37;97260.47;;;6.57;100.00